Time;durP1;ratioP1;P1;durP2;ratioP2;P2;SDS_P1;SDS_P2;PMS_P1;PMS_P2;Temp;Humidity;BMP_temperature;BMP_pressure;BME280_temperature;BME280_humidity;BME280_pressure;Samples;Min_cycle;Max_cycle;Signal;HPM_P1;HPM_P2
2022/08/14 00:00:45;;;;;;;9.85;7.78;;;22.90;97.30;;;;;;3060794;19;20014;-71
2022/08/14 00:01:51;;;;;;;8.68;7.53;;;22.80;97.40;;;;;;3060878;19;20010;-72
2022/08/14 00:02:52;;;;;;;9.40;7.78;;;22.90;97.40;;;;;;3060910;19;20002;-71
2022/08/14 00:03:56;;;;;;;10.90;8.15;;;22.80;97.40;;;;;;3060639;19;20092;-71
2022/08/14 00:04:58;;;;;;;9.85;8.10;;;22.90;97.60;;;;;;3061041;19;20003;-71
2022/08/14 00:06:03;;;;;;;9.00;7.57;;;22.80;97.30;;;;;;3060626;19;20018;-71
2022/08/14 00:07:05;;;;;;;9.43;7.68;;;23.00;97.50;;;;;;3060981;19;20015;-71
2022/08/14 00:08:09;;;;;;;9.00;7.55;;;22.90;97.40;;;;;;3061431;19;20007;-71
2022/08/14 00:09:11;;;;;;;12.63;7.88;;;22.80;97.30;;;;;;3061004;19;20031;-71
2022/08/14 00:10:17;;;;;;;10.73;8.05;;;23.00;97.40;;;;;;3060681;19;20014;-71
2022/08/14 00:11:19;;;;;;;8.77;7.80;;;22.10;97.30;;;;;;3060737;19;20491;-71
2022/08/14 00:12:23;;;;;;;9.48;7.80;;;22.80;97.40;;;;;;3060003;19;20043;-72
2022/08/14 00:13:27;;;;;;;10.68;8.00;;;22.90;97.50;;;;;;3060792;19;20010;-71
2022/08/14 00:14:31;;;;;;;10.63;7.82;;;22.90;97.60;;;;;;3060397;19;20014;-71
2022/08/14 00:15:36;;;;;;;12.68;7.70;;;23.00;97.40;;;;;;3060635;19;20527;-71
2022/08/14 00:16:39;;;;;;;10.10;8.10;;;22.80;97.60;;;;;;3060531;19;20018;-72
2022/08/14 00:17:44;;;;;;;10.00;7.85;;;22.80;97.50;;;;;;3060823;19;20013;-72
2022/08/14 00:18:48;;;;;;;9.13;7.63;;;22.80;97.70;;;;;;3060777;19;20103;-71
2022/08/14 00:19:50;;;;;;;9.13;8.15;;;23.00;97.50;;;;;;3060838;19;20006;-71
2022/08/14 00:20:54;;;;;;;11.02;8.13;;;22.80;97.50;;;;;;3060598;19;20018;-71
2022/08/14 00:21:55;;;;;;;9.70;8.13;;;23.00;97.60;;;;;;3060532;19;20010;-71
2022/08/14 00:23:00;;;;;;;9.20;8.07;;;22.80;97.60;;;;;;3060335;19;20452;-71
2022/08/14 00:24:03;;;;;;;11.55;8.27;;;22.60;97.60;;;;;;3060795;19;20010;-72
2022/08/14 00:25:08;;;;;;;10.93;8.85;;;22.60;97.70;;;;;;3059580;19;20026;-71
2022/08/14 00:26:11;;;;;;;13.02;9.25;;;22.80;97.80;;;;;;3060270;19;20006;-72
2022/08/14 00:27:13;;;;;;;10.93;8.60;;;22.60;97.80;;;;;;3060343;19;20379;-71
2022/08/14 00:28:17;;;;;;;9.82;8.55;;;22.70;97.90;;;;;;3059824;19;20332;-72
2022/08/14 00:29:21;;;;;;;11.10;8.48;;;22.70;98.00;;;;;;3059482;19;20053;-71
2022/08/14 00:30:23;;;;;;;11.93;8.60;;;22.70;98.30;;;;;;3059615;19;20018;-71
2022/08/14 00:31:27;;;;;;;10.38;9.07;;;22.70;98.10;;;;;;3060260;19;20025;-71
2022/08/14 00:32:28;;;;;;;10.75;8.55;;;22.50;98.20;;;;;;3060404;19;19999;-71
2022/08/14 00:33:35;;;;;;;9.48;8.43;;;22.40;98.20;;;;;;3060361;19;20017;-72
2022/08/14 00:34:37;;;;;;;12.95;8.50;;;22.40;98.30;;;;;;3060501;19;20084;-71
2022/08/14 00:35:41;;;;;;;9.35;8.25;;;22.60;98.30;;;;;;3060420;19;20039;-71
2022/08/14 00:36:42;;;;;;;10.63;8.10;;;22.40;98.30;;;;;;3059628;19;20010;-71
2022/08/14 00:37:49;;;;;;;10.43;8.20;;;22.40;98.30;;;;;;3059523;19;20313;-71
2022/08/14 00:38:50;;;;;;;10.70;8.48;;;22.60;98.30;;;;;;3060289;19;20011;-71
2022/08/14 00:39:54;;;;;;;10.68;8.65;;;22.60;98.30;;;;;;3060604;19;20043;-72
2022/08/14 00:40:55;;;;;;;11.70;8.18;;;22.50;98.60;;;;;;3060201;19;20002;-71
2022/08/14 00:41:59;;;;;;;11.38;8.27;;;22.60;98.30;;;;;;3060176;19;20043;-71
2022/08/14 00:43:01;;;;;;;9.75;7.95;;;22.50;98.30;;;;;;3060187;19;20074;-71
2022/08/14 00:44:05;;;;;;;12.35;9.05;;;22.40;98.30;;;;;;3060155;19;20002;-72
2022/08/14 00:45:09;;;;;;;10.60;7.93;;;22.60;98.40;;;;;;3060188;19;20003;-71
2022/08/14 00:46:14;;;;;;;10.15;8.40;;;22.40;98.30;;;;;;3060183;19;20015;-71
2022/08/14 00:47:16;;;;;;;11.13;8.68;;;22.40;98.40;;;;;;3058879;19;20010;-71
2022/08/14 00:48:20;;;;;;;11.20;8.60;;;22.30;98.40;;;;;;3059496;19;20472;-71
2022/08/14 00:49:24;;;;;;;11.05;8.68;;;22.50;98.40;;;;;;3060183;19;20009;-71
2022/08/14 00:50:29;;;;;;;10.50;8.20;;;22.60;98.50;;;;;;3060006;19;20090;-71
2022/08/14 00:51:32;;;;;;;10.25;9.18;;;22.40;98.40;;;;;;3059998;19;20010;-71
2022/08/14 00:52:36;;;;;;;12.40;8.95;;;22.50;98.40;;;;;;3060200;19;20014;-71
2022/08/14 00:53:38;;;;;;;13.15;8.85;;;22.40;98.40;;;;;;3060105;19;20018;-71
2022/08/14 00:54:43;;;;;;;10.15;9.05;;;22.40;98.50;;;;;;3060014;19;20492;-72
2022/08/14 00:55:46;;;;;;;10.68;8.77;;;22.30;98.50;;;;;;3059931;19;20014;-72
2022/08/14 00:56:50;;;;;;;12.05;8.55;;;22.20;98.40;;;;;;3060165;19;20014;-71
2022/08/14 00:59:11;;;;;;;10.63;8.82;;;22.50;98.60;;;;;;3059769;19;20078;-71
2022/08/14 01:00:14;;;;;;;11.00;8.98;;;22.50;98.60;;;;;;3059857;19;20024;-71
2022/08/14 01:01:18;;;;;;;11.75;9.23;;;22.20;98.50;;;;;;3060290;19;20468;-73
2022/08/14 01:02:23;;;;;;;9.88;8.75;;;22.40;98.60;;;;;;3059723;19;20023;-72
2022/08/14 01:03:29;;;;;;;11.48;8.90;;;22.30;98.60;;;;;;3060073;19;20010;-71
2022/08/14 01:04:35;;;;;;;11.00;8.82;;;22.30;98.70;;;;;;3059900;19;20002;-71
2022/08/14 01:05:39;;;;;;;9.77;8.70;;;22.20;98.70;;;;;;3059996;19;20017;-71
2022/08/14 01:06:40;;;;;;;10.60;8.38;;;22.20;98.70;;;;;;3059727;19;20011;-71
2022/08/14 01:07:45;;;;;;;10.82;8.98;;;22.30;98.80;;;;;;3059862;19;20077;-71
2022/08/14 01:08:49;;;;;;;11.10;8.75;;;22.20;98.80;;;;;;3059029;19;20011;-71
2022/08/14 01:09:55;;;;;;;12.40;9.68;;;22.30;98.80;;;;;;3060193;19;20002;-71
2022/08/14 01:10:57;;;;;;;11.18;9.85;;;22.20;98.80;;;;;;3059761;19;20019;-71
2022/08/14 01:12:03;;;;;;;11.70;9.70;;;22.10;98.80;;;;;;3059818;19;20051;-71
2022/08/14 01:13:04;;;;;;;12.48;9.43;;;22.30;98.80;;;;;;3059814;19;20006;-71
2022/08/14 01:14:08;;;;;;;10.57;9.18;;;22.10;98.80;;;;;;3060051;19;20479;-71
2022/08/14 01:15:09;;;;;;;12.23;9.45;;;22.20;98.80;;;;;;3059773;19;20021;-72
2022/08/14 01:16:16;;;;;;;10.43;9.13;;;22.20;98.80;;;;;;3059936;19;20002;-72
2022/08/14 01:17:17;;;;;;;13.48;9.43;;;22.30;98.90;;;;;;3059836;19;20022;-71
2022/08/14 01:21:12;;;;;;;9.95;8.95;;;22.30;98.80;;;;;;3059438;19;20014;-71
2022/08/14 01:22:17;;;;;;;10.65;8.98;;;22.20;98.90;;;;;;3059735;19;20010;-71
2022/08/14 01:23:21;;;;;;;10.55;8.95;;;22.20;99.00;;;;;;3059674;19;20025;-72
2022/08/14 01:24:23;;;;;;;11.60;9.25;;;22.10;99.20;;;;;;3059694;19;20014;-72
2022/08/14 01:25:27;;;;;;;10.55;9.07;;;22.20;99.00;;;;;;3059253;19;20499;-71
2022/08/14 01:26:31;;;;;;;10.43;8.52;;;22.20;99.00;;;;;;3059510;19;20019;-71
2022/08/14 01:27:34;;;;;;;10.40;9.30;;;22.20;99.00;;;;;;3059762;19;20014;-72
2022/08/14 01:28:41;;;;;;;11.68;9.25;;;22.30;99.00;;;;;;3059106;19;20124;-71
2022/08/14 01:29:44;;;;;;;10.48;8.98;;;22.20;99.10;;;;;;3059563;19;20025;-71
2022/08/14 01:30:48;;;;;;;10.77;9.18;;;22.20;99.00;;;;;;3059562;19;20622;-72
2022/08/14 01:31:52;;;;;;;10.45;9.25;;;22.10;99.00;;;;;;3059492;19;20073;-71
2022/08/14 01:32:54;;;;;;;10.88;8.77;;;22.20;99.20;;;;;;3059831;19;20006;-71
2022/08/14 01:34:00;;;;;;;10.38;9.15;;;22.20;99.40;;;;;;3059655;19;20015;-71
2022/08/14 01:35:07;;;;;;;10.57;8.98;;;22.20;99.10;;;;;;3059718;19;20575;-71
2022/08/14 01:36:11;;;;;;;10.48;9.30;;;22.20;99.10;;;;;;3059449;19;20492;-71
2022/08/14 01:37:15;;;;;;;11.45;9.20;;;22.20;99.20;;;;;;3059675;19;20036;-71
2022/08/14 01:38:22;;;;;;;10.85;9.30;;;22.20;99.10;;;;;;3059437;19;20081;-72
2022/08/14 01:39:24;;;;;;;13.55;9.32;;;22.30;99.20;;;;;;3059573;19;20026;-71
2022/08/14 01:40:30;;;;;;;10.05;9.05;;;22.10;99.20;;;;;;3059532;19;20014;-71
2022/08/14 01:41:37;;;;;;;11.77;9.60;;;22.20;99.50;;;;;;3059657;19;20358;-71
2022/08/14 01:42:41;;;;;;;10.75;9.18;;;22.10;99.30;;;;;;3059572;19;20021;-72
2022/08/14 01:43:47;;;;;;;12.80;9.02;;;22.10;99.30;;;;;;3059323;19;20382;-72
2022/08/14 01:44:51;;;;;;;13.52;9.30;;;22.10;99.40;;;;;;3059505;19;20010;-71
2022/08/14 01:45:55;;;;;;;11.75;9.13;;;22.10;99.30;;;;;;3059248;19;20689;-72
2022/08/14 01:47:00;;;;;;;10.50;8.85;;;22.00;99.40;;;;;;3059342;19;20025;-72
2022/08/14 01:48:02;;;;;;;11.43;9.68;;;22.20;99.40;;;;;;3059254;19;20014;-72
2022/08/14 01:49:10;;;;;;;12.15;9.30;;;22.10;99.30;;;;;;3058838;19;20014;-71
2022/08/14 01:50:11;;;;;;;14.05;9.38;;;22.20;99.50;;;;;;3059469;19;20018;-71
2022/08/14 01:51:18;;;;;;;12.30;8.90;;;22.10;99.40;;;;;;3059309;19;20006;-71
2022/08/14 01:52:24;;;;;;;10.25;9.20;;;22.30;99.40;;;;;;3059315;19;20021;-72
2022/08/14 01:53:30;;;;;;;11.52;9.20;;;22.10;99.50;;;;;;3059257;19;20470;-71
2022/08/14 01:54:34;;;;;;;12.57;9.02;;;22.10;99.40;;;;;;3059328;19;20003;-71
2022/08/14 01:55:37;;;;;;;11.40;8.60;;;22.10;99.40;;;;;;3058868;19;20018;-71
2022/08/14 01:56:43;;;;;;;10.38;9.00;;;22.40;99.50;;;;;;3059145;19;20011;-71
2022/08/14 01:57:45;;;;;;;11.23;8.98;;;22.20;99.80;;;;;;3059440;19;20023;-72
2022/08/14 01:58:50;;;;;;;10.32;8.80;;;22.10;99.50;;;;;;3057897;19;20019;-72
2022/08/14 01:59:55;;;;;;;11.50;8.70;;;22.30;99.60;;;;;;3058196;19;20014;-71
2022/08/14 02:01:00;;;;;;;11.50;9.43;;;22.20;99.60;;;;;;3059122;19;20035;-72
2022/08/14 02:02:11;;;;;;;10.43;9.15;;;22.10;99.50;;;;;;3059115;19;20361;-71
2022/08/14 02:03:12;;;;;;;11.50;9.13;;;22.10;99.40;;;;;;3059469;19;20021;-72
2022/08/14 02:04:16;;;;;;;14.25;9.55;;;22.10;99.50;;;;;;3059116;19;20423;-72
2022/08/14 02:05:17;;;;;;;9.60;8.65;;;22.10;99.60;;;;;;3059057;19;20015;-71
2022/08/14 02:06:21;;;;;;;10.07;8.80;;;22.00;99.50;;;;;;3059896;19;20085;-71
2022/08/14 02:07:25;;;;;;;14.48;9.85;;;22.00;99.50;;;;;;3058965;19;20011;-71
2022/08/14 02:08:30;;;;;;;12.07;9.60;;;21.90;99.60;;;;;;3058932;19;20006;-72
2022/08/14 02:09:34;;;;;;;10.60;8.98;;;22.10;99.60;;;;;;3059094;19;20481;-71
2022/08/14 02:10:38;;;;;;;11.20;9.50;;;22.10;99.50;;;;;;3058739;19;20028;-71
2022/08/14 02:11:39;;;;;;;11.13;8.98;;;22.40;99.60;;;;;;3058845;19;20014;-72
2022/08/14 02:12:43;;;;;;;13.60;9.68;;;22.10;99.50;;;;;;3058468;19;20078;-71
2022/08/14 02:13:46;;;;;;;11.50;8.95;;;22.10;99.50;;;;;;3058812;19;20014;-72
2022/08/14 02:14:50;;;;;;;12.40;9.43;;;22.10;99.60;;;;;;3058953;19;20006;-71
2022/08/14 02:15:51;;;;;;;12.23;9.32;;;22.20;99.50;;;;;;3057932;19;20018;-71
2022/08/14 02:16:56;;;;;;;12.00;9.10;;;22.10;99.50;;;;;;3058389;19;19999;-71
2022/08/14 02:18:00;;;;;;;10.70;9.60;;;22.10;99.60;;;;;;3059075;19;20014;-72
2022/08/14 02:19:08;;;;;;;11.00;9.40;;;22.00;99.60;;;;;;3058923;19;20003;-71
2022/08/14 02:20:09;;;;;;;13.57;9.57;;;22.10;99.70;;;;;;3059138;19;20018;-72
2022/08/14 02:21:17;;;;;;;11.68;9.93;;;22.00;99.70;;;;;;3058978;19;20014;-72
2022/08/14 02:22:20;;;;;;;12.63;9.02;;;22.00;99.70;;;;;;3059038;19;20032;-72
2022/08/14 02:23:27;;;;;;;11.07;9.40;;;22.10;99.70;;;;;;3058816;19;20006;-72
2022/08/14 02:24:29;;;;;;;13.10;8.85;;;21.80;99.70;;;;;;3058957;19;20010;-71
2022/08/14 02:25:33;;;;;;;10.95;9.25;;;22.10;99.80;;;;;;3058197;19;20467;-71
2022/08/14 02:26:36;;;;;;;11.13;8.98;;;22.10;99.80;;;;;;3058832;19;20022;-72
2022/08/14 02:27:41;;;;;;;12.82;9.90;;;22.00;99.90;;;;;;3058761;19;20486;-72
2022/08/14 02:28:44;;;;;;;11.18;9.55;;;21.90;99.90;;;;;;3058754;19;20027;-71
2022/08/14 02:29:49;;;;;;;12.73;9.50;;;21.90;99.90;;;;;;3058613;19;20002;-71
2022/08/14 02:30:51;;;;;;;13.65;10.00;;;21.90;99.90;;;;;;3058723;19;20386;-71
2022/08/14 02:31:57;;;;;;;11.27;8.88;;;21.90;99.90;;;;;;3058941;19;20028;-71
2022/08/14 02:33:00;;;;;;;11.60;9.45;;;21.90;99.90;;;;;;3058854;19;20010;-71
2022/08/14 02:34:09;;;;;;;9.88;8.85;;;21.80;99.90;;;;;;3058613;19;20014;-71
2022/08/14 02:35:17;;;;;;;10.90;9.80;;;21.70;99.90;;;;;;3058831;19;20023;-71
2022/08/14 02:36:21;;;;;;;11.52;10.02;;;21.80;99.90;;;;;;3058796;19;20010;-71
2022/08/14 02:37:22;;;;;;;11.48;10.07;;;21.80;99.90;;;;;;3058954;19;20014;-71
2022/08/14 02:38:30;;;;;;;10.85;9.63;;;21.50;99.90;;;;;;3058569;19;20495;-71
2022/08/14 02:39:33;;;;;;;11.02;9.63;;;21.90;99.90;;;;;;3058797;19;20014;-71
2022/08/14 02:40:39;;;;;;;12.50;9.98;;;21.80;99.90;;;;;;3058539;19;20025;-71
2022/08/14 02:41:41;;;;;;;11.80;10.07;;;21.80;99.90;;;;;;3058593;19;20011;-71
2022/08/14 02:42:45;;;;;;;14.23;10.65;;;21.70;99.90;;;;;;3058446;19;20006;-71
2022/08/14 02:43:46;;;;;;;14.00;10.27;;;21.90;99.90;;;;;;3058853;19;20010;-71
2022/08/14 02:44:50;;;;;;;13.55;9.65;;;22.60;99.90;;;;;;3058540;19;20367;-71
2022/08/14 02:45:51;;;;;;;13.05;10.38;;;21.60;99.90;;;;;;3058706;19;20005;-71
2022/08/14 02:46:57;;;;;;;11.48;9.43;;;21.60;99.90;;;;;;3058530;19;20488;-71
2022/08/14 02:47:58;;;;;;;11.73;10.15;;;21.70;99.90;;;;;;3058617;19;20445;-72
2022/08/14 02:49:03;;;;;;;11.70;9.85;;;21.60;99.90;;;;;;3058293;19;20035;-72
2022/08/14 02:50:05;;;;;;;13.63;10.30;;;21.60;99.90;;;;;;3058620;19;20010;-71
2022/08/14 02:51:12;;;;;;;11.73;9.73;;;21.70;99.90;;;;;;3058561;19;20035;-71
2022/08/14 02:52:13;;;;;;;11.70;10.07;;;19.20;99.90;;;;;;3058744;19;19999;-71
2022/08/14 02:53:17;;;;;;;11.75;9.77;;;21.50;99.90;;;;;;3058501;19;20007;-71
2022/08/14 02:54:22;;;;;;;12.88;10.23;;;21.50;99.90;;;;;;3058754;19;20074;-71
2022/08/14 02:55:25;;;;;;;13.27;10.18;;;21.60;99.90;;;;;;3058114;19;20018;-71
2022/08/14 02:56:27;;;;;;;12.82;9.77;;;21.50;99.90;;;;;;3058753;19;20023;-72
2022/08/14 02:57:31;;;;;;;12.68;10.35;;;21.70;99.90;;;;;;3058302;19;20011;-72
2022/08/14 02:58:36;;;;;;;13.57;9.88;;;21.50;99.90;;;;;;3057540;19;20025;-71
2022/08/14 02:59:40;;;;;;;11.68;9.80;;;21.70;99.90;;;;;;3057586;19;20032;-72
2022/08/14 03:00:42;;;;;;;12.93;9.88;;;21.60;99.90;;;;;;3058421;19;20476;-71
2022/08/14 03:01:46;;;;;;;11.05;9.95;;;21.50;99.90;;;;;;3058327;19;20014;-72
2022/08/14 03:02:49;;;;;;;11.90;9.70;;;21.50;99.90;;;;;;3058631;19;20018;-71
2022/08/14 03:03:54;;;;;;;12.98;10.93;;;21.50;99.90;;;;;;3058294;19;20031;-72
2022/08/14 03:04:56;;;;;;;14.95;10.35;;;21.60;99.90;;;;;;3058602;19;20010;-72
2022/08/14 03:06:00;;;;;;;11.80;10.02;;;21.50;99.90;;;;;;3059915;19;20017;-71
2022/08/14 03:07:01;;;;;;;13.82;9.65;;;21.40;99.90;;;;;;3058287;19;19999;-71
2022/08/14 03:08:10;;;;;;;12.50;10.00;;;21.40;99.90;;;;;;3058322;19;20443;-71
2022/08/14 03:09:11;;;;;;;13.18;10.07;;;21.40;99.90;;;;;;3057804;19;20006;-71
2022/08/14 03:10:18;;;;;;;12.57;10.32;;;21.40;99.90;;;;;;3057514;19;20468;-72
2022/08/14 03:11:20;;;;;;;12.95;10.23;;;21.40;99.90;;;;;;3058033;19;20039;-72
2022/08/14 03:12:25;;;;;;;13.25;9.77;;;21.20;99.90;;;;;;3057889;19;20018;-71
2022/08/14 03:13:27;;;;;;;11.65;10.00;;;21.40;99.90;;;;;;3058089;19;20502;-71
2022/08/14 03:14:34;;;;;;;11.88;10.50;;;21.30;99.90;;;;;;3058527;19;20519;-71
2022/08/14 03:15:38;;;;;;;13.43;9.93;;;21.40;99.90;;;;;;3058188;19;20010;-71
2022/08/14 03:16:44;;;;;;;12.02;10.05;;;21.20;99.90;;;;;;3058459;19;20504;-71
2022/08/14 03:17:45;;;;;;;13.40;10.60;;;21.20;99.90;;;;;;3058073;19;19998;-71
2022/08/14 03:18:52;;;;;;;10.80;9.55;;;21.20;99.90;;;;;;3058212;19;20082;-71
2022/08/14 03:19:53;;;;;;;12.77;10.35;;;21.30;99.90;;;;;;3058002;19;20019;-71
2022/08/14 03:20:57;;;;;;;11.63;9.23;;;21.10;99.90;;;;;;3058254;19;20018;-71
2022/08/14 03:21:58;;;;;;;11.63;10.00;;;21.20;99.90;;;;;;3057909;19;20116;-71
2022/08/14 03:23:03;;;;;;;13.43;11.10;;;21.40;99.90;;;;;;3058346;19;20011;-71
2022/08/14 03:24:11;;;;;;;13.63;10.05;;;21.20;99.90;;;;;;3058045;19;20022;-71
2022/08/14 03:25:20;;;;;;;12.32;10.90;;;21.10;99.90;;;;;;3057378;19;20026;-71
2022/08/14 03:26:23;;;;;;;11.95;10.40;;;21.10;99.90;;;;;;3058005;19;20010;-71
2022/08/14 03:27:30;;;;;;;12.60;10.40;;;21.20;99.90;;;;;;3058056;19;20036;-72
2022/08/14 03:28:31;;;;;;;14.00;11.30;;;21.00;99.90;;;;;;3058246;19;20011;-71
2022/08/14 03:29:35;;;;;;;14.77;10.73;;;21.10;99.90;;;;;;3057481;19;20476;-72
2022/08/14 03:30:37;;;;;;;12.60;10.50;;;20.90;99.90;;;;;;3058152;19;20384;-71
2022/08/14 03:31:42;;;;;;;13.25;11.15;;;21.20;99.90;;;;;;3058234;19;20001;-71
2022/08/14 03:32:43;;;;;;;11.65;10.13;;;21.10;99.90;;;;;;3057969;19;20390;-71
2022/08/14 03:33:47;;;;;;;13.77;10.85;;;21.10;99.90;;;;;;3058184;19;20007;-71
2022/08/14 03:34:49;;;;;;;13.50;11.35;;;21.10;99.90;;;;;;3057846;19;20014;-71
2022/08/14 03:35:53;;;;;;;12.63;10.73;;;21.00;99.90;;;;;;3058226;19;20036;-72
2022/08/14 03:36:57;;;;;;;12.18;10.32;;;21.00;99.90;;;;;;3058043;19;20006;-71
2022/08/14 03:38:05;;;;;;;12.32;10.40;;;21.20;99.90;;;;;;3058130;19;20415;-72
2022/08/14 03:39:13;;;;;;;12.15;10.68;;;20.90;99.90;;;;;;3058067;19;20018;-71
2022/08/14 03:40:17;;;;;;;14.07;10.57;;;21.20;99.90;;;;;;3057919;19;20471;-71
2022/08/14 03:41:24;;;;;;;13.90;10.73;;;20.90;99.90;;;;;;3057974;19;20018;-72
2022/08/14 03:42:25;;;;;;;14.07;10.88;;;21.00;99.90;;;;;;3057953;19;20014;-71
2022/08/14 03:43:29;;;;;;;12.82;10.75;;;20.90;99.90;;;;;;3058030;19;20108;-72
2022/08/14 03:44:31;;;;;;;16.27;11.38;;;21.00;99.90;;;;;;3057818;19;20548;-72
2022/08/14 03:45:35;;;;;;;12.45;10.45;;;21.00;99.90;;;;;;3057959;19;20029;-71
2022/08/14 03:46:37;;;;;;;12.73;10.35;;;20.90;99.90;;;;;;3058024;19;19998;-71
2022/08/14 03:47:42;;;;;;;13.80;10.30;;;20.80;99.90;;;;;;3057836;19;20019;-71
2022/08/14 03:48:44;;;;;;;14.80;11.43;;;20.90;99.90;;;;;;3057732;19;20003;-71
2022/08/14 03:49:48;;;;;;;12.65;9.68;;;21.00;99.90;;;;;;3057035;19;20010;-71
2022/08/14 03:50:51;;;;;;;15.32;10.35;;;20.80;99.90;;;;;;3057834;19;20015;-71
2022/08/14 03:51:54;;;;;;;16.38;10.52;;;20.90;99.90;;;;;;3057729;19;20017;-71
2022/08/14 03:52:56;;;;;;;12.60;10.70;;;21.00;99.90;;;;;;3057727;19;20010;-71
2022/08/14 03:54:04;;;;;;;16.83;10.93;;;21.00;99.90;;;;;;3057827;19;20010;-71
2022/08/14 03:55:08;;;;;;;11.85;10.32;;;20.80;99.90;;;;;;3057686;19;20022;-71
2022/08/14 03:56:17;;;;;;;12.18;9.85;;;20.80;99.90;;;;;;3057402;19;20014;-71
2022/08/14 03:57:19;;;;;;;11.70;10.32;;;20.80;99.90;;;;;;3057688;19;20010;-71
2022/08/14 03:58:23;;;;;;;11.88;9.55;;;20.70;99.90;;;;;;3057845;19;20400;-71
2022/08/14 03:59:24;;;;;;;15.40;10.68;;;20.80;99.90;;;;;;3057687;19;20022;-71
2022/08/14 04:00:28;;;;;;;14.93;10.70;;;20.90;99.90;;;;;;3057824;19;20002;-71
2022/08/14 04:01:30;;;;;;;13.52;10.15;;;21.00;99.90;;;;;;3056730;19;20115;-71
2022/08/14 04:02:35;;;;;;;11.68;9.93;;;20.70;99.90;;;;;;3056945;19;20052;-72
2022/08/14 04:03:36;;;;;;;12.50;10.18;;;20.80;99.90;;;;;;3057633;19;20084;-71
2022/08/14 04:04:44;;;;;;;12.65;10.45;;;20.90;99.90;;;;;;3058426;19;20113;-72
2022/08/14 04:05:46;;;;;;;12.15;10.13;;;20.90;99.90;;;;;;3057515;19;20410;-71
2022/08/14 04:06:50;;;;;;;16.02;9.90;;;21.00;99.90;;;;;;3057815;19;20010;-71
2022/08/14 04:07:51;;;;;;;12.00;10.00;;;20.60;99.90;;;;;;3057566;19;20006;-71
2022/08/14 04:08:55;;;;;;;12.65;10.25;;;20.90;99.90;;;;;;3056989;19;20361;-71
2022/08/14 04:09:56;;;;;;;13.15;10.55;;;20.70;99.90;;;;;;3056005;19;20014;-71
2022/08/14 04:11:01;;;;;;;12.82;10.57;;;21.00;99.90;;;;;;3057636;19;20018;-71
2022/08/14 04:12:06;;;;;;;14.10;10.93;;;20.90;99.90;;;;;;3057312;19;20010;-71
2022/08/14 04:13:10;;;;;;;12.68;10.70;;;20.80;99.90;;;;;;3057903;19;20010;-71
2022/08/14 04:14:12;;;;;;;14.88;10.55;;;21.00;99.90;;;;;;3057549;19;20017;-71
2022/08/14 04:15:20;;;;;;;14.50;10.38;;;21.00;99.90;;;;;;3057680;19;19999;-71
2022/08/14 04:16:22;;;;;;;13.32;10.98;;;20.80;99.90;;;;;;3057752;19;20039;-71
2022/08/14 04:17:28;;;;;;;11.98;10.25;;;20.80;99.90;;;;;;3057791;19;20019;-71
2022/08/14 04:18:31;;;;;;;12.88;11.05;;;20.70;99.90;;;;;;3057600;19;20029;-71
2022/08/14 04:19:35;;;;;;;12.25;10.48;;;20.90;99.90;;;;;;3057511;19;20033;-71
2022/08/14 04:20:38;;;;;;;12.32;10.63;;;20.30;99.90;;;;;;3057390;19;20014;-71
2022/08/14 04:21:41;;;;;;;13.85;10.77;;;20.80;99.90;;;;;;3057609;19;20014;-71
2022/08/14 04:22:44;;;;;;;11.88;10.50;;;20.60;99.90;;;;;;3058887;19;20014;-71
2022/08/14 04:23:50;;;;;;;14.15;10.52;;;20.90;99.90;;;;;;3060778;19;20099;-71
2022/08/14 04:24:52;;;;;;;12.68;10.05;;;20.80;99.90;;;;;;3059760;19;20055;-71
2022/08/14 04:25:55;;;;;;;;;;;20.70;99.90;;;;;;3060742;19;19999;-71
2022/08/14 04:26:56;;;;;;;14.75;10.30;;;20.70;99.90;;;;;;3060543;19;19919;-71
2022/08/14 04:28:04;;;;;;;12.02;10.70;;;20.70;99.90;;;;;;3060723;19;20007;-71
2022/08/14 04:29:08;;;;;;;15.30;10.70;;;20.60;99.90;;;;;;3060737;19;20446;-71
2022/08/14 04:30:13;;;;;;;12.65;10.07;;;20.80;99.90;;;;;;3059261;19;20023;-71
2022/08/14 04:31:15;;;;;;;11.35;9.82;;;20.70;99.90;;;;;;3060374;19;20010;-71
2022/08/14 04:32:19;;;;;;;13.57;10.90;;;20.70;99.90;;;;;;3060340;19;20027;-71
2022/08/14 04:33:23;;;;;;;12.40;11.07;;;20.70;99.90;;;;;;3060355;19;20010;-71
2022/08/14 04:34:27;;;;;;;13.20;10.98;;;20.70;99.90;;;;;;3060222;19;20010;-71
2022/08/14 04:35:28;;;;;;;15.10;10.13;;;20.70;99.90;;;;;;3060436;19;20022;-71
2022/08/14 04:43:34;;;;;;;12.77;10.15;;;20.70;99.90;;;;;;3060620;19;20002;-71
2022/08/14 04:44:21;;;;;;;11.90;9.85;;;20.90;99.90;;;;;;3059165;19;20036;-71
2022/08/14 04:45:23;;;;;;;13.38;9.98;;;20.70;99.90;;;;;;3060179;19;20541;-71
2022/08/14 04:46:27;;;;;;;12.27;10.50;;;20.80;99.90;;;;;;3060461;19;20010;-71
2022/08/14 04:48:45;;;;;;;11.23;9.65;;;20.90;99.90;;;;;;3060471;19;20006;-71
2022/08/14 04:49:49;;;;;;;12.43;10.25;;;20.80;99.90;;;;;;3059920;19;20483;-71
2022/08/14 04:50:54;;;;;;;11.85;10.02;;;20.80;99.90;;;;;;3059289;19;20018;-71
2022/08/14 04:51:55;;;;;;;12.70;10.43;;;20.80;99.90;;;;;;3059334;19;20044;-71
2022/08/14 04:52:59;;;;;;;11.95;9.73;;;20.80;99.90;;;;;;3060308;19;20011;-71
2022/08/14 04:54:03;;;;;;;11.63;10.23;;;21.10;99.90;;;;;;3060285;19;20031;-71
2022/08/14 04:55:07;;;;;;;16.35;10.10;;;20.90;99.90;;;;;;3060081;19;20349;-71
2022/08/14 04:56:12;;;;;;;11.00;9.80;;;20.90;99.90;;;;;;3059551;19;20018;-71
2022/08/14 04:57:13;;;;;;;12.13;10.15;;;20.70;99.90;;;;;;3060246;19;20014;-71
2022/08/14 04:58:21;;;;;;;;;;;21.00;99.90;;;;;;3060807;19;20084;-71
2022/08/14 04:59:23;;;;;;;12.98;9.60;;;20.90;99.90;;;;;;3060189;19;19982;-71
2022/08/14 05:00:28;;;;;;;11.45;9.65;;;20.90;99.90;;;;;;3059951;19;20122;-71
2022/08/14 05:01:30;;;;;;;13.00;10.32;;;20.80;99.90;;;;;;3059946;19;20010;-71
2022/08/14 05:02:34;;;;;;;11.93;10.15;;;20.80;99.90;;;;;;3059971;19;20015;-71
2022/08/14 05:03:37;;;;;;;13.30;9.45;;;20.80;99.90;;;;;;3060204;19;20007;-71
2022/08/14 05:04:41;;;;;;;15.73;10.55;;;20.90;99.90;;;;;;3059858;19;20010;-71
2022/08/14 05:05:42;;;;;;;13.63;9.90;;;20.80;99.90;;;;;;3059929;19;20014;-71
2022/08/14 05:06:46;;;;;;;10.85;9.70;;;20.90;99.90;;;;;;3060078;19;20015;-71
2022/08/14 05:07:47;;;;;;;12.50;9.98;;;20.90;99.90;;;;;;3059962;19;20029;-71
2022/08/14 05:08:52;;;;;;;10.82;9.73;;;20.80;99.90;;;;;;3059893;19;20014;-72
2022/08/14 05:09:53;;;;;;;13.90;10.18;;;21.00;99.90;;;;;;3059338;19;20019;-71
2022/08/14 05:10:59;;;;;;;13.52;10.15;;;20.80;99.90;;;;;;3060023;19;20025;-71
2022/08/14 05:12:00;;;;;;;14.02;10.18;;;20.80;99.90;;;;;;3059403;19;20003;-71
2022/08/14 05:13:05;;;;;;;10.85;9.68;;;20.80;99.90;;;;;;3059964;19;20022;-71
2022/08/14 05:14:10;;;;;;;14.70;10.43;;;20.70;99.90;;;;;;3058905;19;20011;-71
2022/08/14 05:15:14;;;;;;;15.13;10.07;;;20.70;99.90;;;;;;3059145;19;20011;-71
2022/08/14 05:16:15;;;;;;;12.32;9.95;;;20.90;99.90;;;;;;3059872;19;20010;-70
2022/08/14 05:17:20;;;;;;;14.05;9.90;;;20.80;99.90;;;;;;3059818;19;20017;-71
2022/08/14 05:18:24;;;;;;;13.75;9.55;;;20.90;99.90;;;;;;3059729;19;20009;-72
2022/08/14 05:19:28;;;;;;;11.85;9.23;;;21.00;99.90;;;;;;3060018;19;20070;-71
2022/08/14 05:20:31;;;;;;;11.50;9.27;;;20.80;99.90;;;;;;3059731;19;20006;-71
2022/08/14 05:21:35;;;;;;;11.68;9.52;;;21.00;99.90;;;;;;3059965;19;20005;-71
2022/08/14 05:22:37;;;;;;;11.88;9.77;;;20.90;99.90;;;;;;3059654;19;20357;-71
2022/08/14 05:23:41;;;;;;;12.70;9.70;;;20.70;99.90;;;;;;3059693;19;20015;-71
2022/08/14 05:24:43;;;;;;;12.75;9.88;;;21.00;99.90;;;;;;3059030;19;20007;-71
2022/08/14 05:25:48;;;;;;;14.15;9.38;;;21.10;99.90;;;;;;3059442;19;20002;-71
2022/08/14 05:26:50;;;;;;;12.70;10.30;;;20.80;99.90;;;;;;3059476;19;20010;-71
2022/08/14 05:27:55;;;;;;;14.00;10.40;;;21.00;99.90;;;;;;3059780;19;20018;-71
2022/08/14 05:28:56;;;;;;;12.45;9.80;;;20.80;99.90;;;;;;3059556;19;20018;-71
2022/08/14 05:30:06;;;;;;;12.25;10.70;;;20.70;99.90;;;;;;3059380;19;20377;-71
2022/08/14 05:31:08;;;;;;;11.48;10.13;;;20.80;99.90;;;;;;3059665;19;20010;-71
2022/08/14 05:32:14;;;;;;;14.80;10.05;;;20.90;99.90;;;;;;3059632;19;20007;-72
2022/08/14 05:33:17;;;;;;;12.77;10.35;;;21.10;99.90;;;;;;3059012;19;20562;-71
2022/08/14 05:34:22;;;;;;;14.50;10.77;;;20.90;99.90;;;;;;3059712;19;20031;-71
2022/08/14 05:35:23;;;;;;;13.27;9.88;;;20.70;99.90;;;;;;3059331;19;20014;-71
2022/08/14 05:36:27;;;;;;;11.20;10.05;;;21.00;99.90;;;;;;3059497;19;20053;-71
2022/08/14 05:37:29;;;;;;;12.98;10.05;;;20.90;99.90;;;;;;3059466;19;20015;-71
2022/08/14 05:38:35;;;;;;;14.77;11.07;;;20.80;99.90;;;;;;3059558;19;20002;-71